Time;durP1;ratioP1;P1;durP2;ratioP2;P2;SDS_P1;SDS_P2;PMS_P1;PMS_P2;Temp;Humidity;BMP_temperature;BMP_pressure;BME280_temperature;BME280_humidity;BME280_pressure;Samples;Min_cycle;Max_cycle;Signal;HPM_P1;HPM_P2
2023/03/16 05:30:26;;;;;;;6.47;3.70;;;9.30;81.20;;;;;;6077163;23;20055;31
2023/03/16 05:32:53;;;;;;;6.78;3.20;;;9.20;81.40;;;;;;4916205;29;20119;-73
2023/03/16 05:35:19;;;;;;;5.10;3.25;;;9.20;81.70;;;;;;4900639;29;20084;-72
2023/03/16 05:37:45;;;;;;;4.78;2.95;;;9.20;81.40;;;;;;4902633;29;20053;-74
2023/03/16 05:40:16;;;;;;;5.97;3.47;;;9.20;81.70;;;;;;4902697;29;20404;-74
2023/03/16 05:42:43;;;;;;;3.45;3.05;;;9.30;81.40;;;;;;4921754;29;20032;-72
2023/03/16 05:45:10;;;;;;;6.15;3.38;;;9.20;81.20;;;;;;4904190;29;20103;-74
2023/03/16 05:47:36;;;;;;;9.05;3.65;;;9.20;81.40;;;;;;4920314;29;20071;-75
2023/03/16 05:50:03;;;;;;;6.40;3.60;;;9.20;80.90;;;;;;4921419;29;20068;-75
2023/03/16 05:52:29;;;;;;;6.15;3.20;;;9.30;81.30;;;;;;4921516;29;20444;-75
2023/03/16 05:54:54;;;;;;;5.40;3.85;;;9.30;80.80;;;;;;4921638;29;20230;-75
2023/03/16 05:57:20;;;;;;;4.40;3.10;;;9.30;80.60;;;;;;4920342;29;20023;-75
2023/03/16 05:59:47;;;;;;;4.63;3.63;;;9.50;80.50;;;;;;4921280;29;20043;-74
2023/03/16 06:02:13;;;;;;;5.78;3.53;;;9.50;79.90;;;;;;4899221;29;20039;-77
2023/03/16 06:04:38;;;;;;;7.05;3.58;;;9.50;79.70;;;;;;4921577;29;20036;-76
2023/03/16 06:07:12;;;;;;;4.75;3.65;;;9.40;79.90;;;;;;4921144;29;20035;-76
2023/03/16 06:09:37;;;;;;;8.38;3.85;;;9.30;79.80;;;;;;4919124;29;20443;-76
2023/03/16 06:12:03;;;;;;;13.95;4.15;;;9.30;80.10;;;;;;4916246;29;20108;-77
2023/03/16 06:14:29;;;;;;;11.00;3.85;;;9.30;80.00;;;;;;4907476;29;20032;-76
2023/03/16 06:16:55;;;;;;;6.15;3.53;;;9.30;80.20;;;;;;4919129;29;20104;-77
2023/03/16 06:19:21;;;;;;;6.78;3.22;;;9.20;80.20;;;;;;4920408;29;20048;-77
2023/03/16 06:21:46;;;;;;;6.40;3.45;;;9.20;80.20;;;;;;4921469;29;20036;-77
2023/03/16 06:24:12;;;;;;;4.72;3.47;;;9.20;80.20;;;;;;4921435;29;20051;-76
2023/03/16 06:26:38;;;;;;;6.53;3.22;;;9.20;80.20;;;;;;4920382;29;20024;-76
2023/03/16 06:29:04;;;;;;;8.25;3.75;;;9.20;80.10;;;;;;4921258;29;20036;-78
2023/03/16 06:31:32;;;;;;;4.25;3.30;;;9.10;80.30;;;;;;4910031;29;20045;-75
2023/03/16 06:33:58;;;;;;;4.05;2.83;;;9.10;80.60;;;;;;4901393;29;20535;-75
2023/03/16 06:36:24;;;;;;;6.50;3.47;;;9.10;80.40;;;;;;4901813;29;20020;-76
2023/03/16 06:38:50;;;;;;;4.43;2.95;;;9.10;80.30;;;;;;4901250;29;20045;-77
2023/03/16 06:41:16;;;;;;;6.63;3.72;;;9.20;79.90;;;;;;4900929;29;20568;-76
2023/03/16 06:43:42;;;;;;;6.70;3.35;;;9.20;79.80;;;;;;4902129;29;20107;-76
2023/03/16 06:46:07;;;;;;;10.07;3.67;;;9.20;79.80;;;;;;4894161;29;20120;-76
2023/03/16 06:48:33;;;;;;;4.32;3.08;;;9.20;79.60;;;;;;4902090;29;20449;-76
2023/03/16 06:51:00;;;;;;;5.85;2.95;;;9.20;79.60;;;;;;4900754;29;20079;-76
2023/03/16 06:53:26;;;;;;;7.18;3.40;;;9.20;79.40;;;;;;4902172;29;20055;-77
2023/03/16 06:55:51;;;;;;;5.38;3.03;;;9.30;79.60;;;;;;4901236;29;20032;-76
2023/03/16 06:58:17;;;;;;;6.93;3.17;;;9.30;79.20;;;;;;4901762;29;20021;-76
2023/03/16 07:00:43;;;;;;;4.80;2.70;;;9.40;79.10;;;;;;4894435;29;20040;-76
2023/03/16 07:03:09;;;;;;;2.90;2.60;;;9.50;78.80;;;;;;4902080;29;20020;-76
2023/03/16 07:05:34;;;;;;;5.75;2.80;;;9.40;78.50;;;;;;4899581;29;20032;-76
2023/03/16 07:08:00;;;;;;;4.45;2.90;;;9.40;78.60;;;;;;4901751;29;20092;-76
2023/03/16 07:10:26;;;;;;;8.23;3.50;;;9.50;78.50;;;;;;4900573;29;20032;-77
2023/03/16 07:12:54;;;;;;;6.20;3.38;;;9.70;78.20;;;;;;4885033;29;20140;-77
2023/03/16 07:15:20;;;;;;;8.15;2.90;;;11.00;75.00;;;;;;4901082;29;20032;-77
2023/03/16 07:17:46;;;;;;;4.20;2.17;;;12.00;71.10;;;;;;4901656;29;20024;-77
2023/03/16 07:20:12;;;;;;;4.13;2.05;;;13.60;66.60;;;;;;4901214;29;20037;-77
2023/03/16 07:22:39;;;;;;;3.10;2.25;;;14.20;62.60;;;;;;4900601;29;20029;-77
2023/03/16 07:25:05;;;;;;;5.68;2.92;;;14.90;60.90;;;;;;4901552;29;20030;-77
2023/03/16 07:27:31;;;;;;;5.03;2.92;;;14.40;61.60;;;;;;4901392;29;20024;-77
2023/03/16 07:29:59;;;;;;;7.05;2.60;;;14.20;61.40;;;;;;4899251;29;20123;-77
2023/03/16 07:32:25;;;;;;;5.30;2.97;;;14.00;62.20;;;;;;4932848;29;20044;-77
2023/03/16 07:34:50;;;;;;;4.85;2.65;;;14.20;61.30;;;;;;4919101;29;20036;-77
2023/03/16 07:37:16;;;;;;;4.90;2.63;;;15.50;57.90;;;;;;4920496;29;20530;-77
2023/03/16 07:39:42;;;;;;;6.43;2.63;;;16.80;53.80;;;;;;4933464;29;20595;-77
2023/03/16 07:42:08;;;;;;;5.78;2.58;;;17.90;51.50;;;;;;4939074;29;20074;-78
2023/03/16 07:44:33;;;;;;;6.32;2.53;;;18.40;48.60;;;;;;4935964;29;20657;-78
2023/03/16 07:47:00;;;;;;;3.95;2.38;;;18.20;48.20;;;;;;4938885;29;20530;-75
2023/03/16 07:49:26;;;;;;;4.90;2.38;;;19.00;47.50;;;;;;4935724;29;20130;-77
2023/03/16 07:51:52;;;;;;;4.93;2.20;;;18.90;47.90;;;;;;4921864;29;20028;-75
2023/03/16 07:54:18;;;;;;;3.03;2.22;;;18.90;47.30;;;;;;4920396;29;20471;-77
2023/03/16 07:56:43;;;;;;;5.53;2.25;;;18.50;47.50;;;;;;4938894;29;20040;-75
2023/03/16 07:59:09;;;;;;;3.72;2.30;;;18.50;48.30;;;;;;4938673;29;20024;-75
2023/03/16 08:01:35;;;;;;;5.15;2.60;;;18.10;48.90;;;;;;4938577;29;20031;-75
2023/03/16 08:04:01;;;;;;;5.35;2.33;;;18.40;49.80;;;;;;4930762;29;20551;-75
2023/03/16 08:06:27;;;;;;;6.50;2.65;;;18.20;48.50;;;;;;4919552;29;20060;-76
2023/03/16 08:08:53;;;;;;;6.75;2.40;;;19.10;48.00;;;;;;4912595;29;20819;-76
2023/03/16 08:11:22;;;;;;;3.95;1.92;;;19.00;46.30;;;;;;4903594;29;20064;-75
2023/03/16 08:13:53;;;;;;;3.72;1.70;;;18.80;46.70;;;;;;4919588;29;20023;-76
2023/03/16 08:16:22;;;;;;;2.75;1.92;;;17.80;48.80;;;;;;4926508;29;20072;-78
2023/03/16 08:18:49;;;;;;;7.53;2.20;;;17.70;50.70;;;;;;4938457;29;20094;-76
2023/03/16 08:21:16;;;;;;;3.75;2.15;;;17.70;50.80;;;;;;4923047;29;20036;-76
2023/03/16 08:23:48;;;;;;;2.95;1.95;;;17.60;50.90;;;;;;4902765;29;20056;-76
2023/03/16 08:26:21;;;;;;;4.55;1.92;;;17.70;51.00;;;;;;4919900;29;20483;-76
2023/03/16 08:28:50;;;;;;;3.88;2.40;;;17.20;51.80;;;;;;4927249;29;20118;-76
2023/03/16 08:31:17;;;;;;;4.45;2.15;;;16.70;53.20;;;;;;4939343;29;20058;-76
2023/03/16 08:33:45;;;;;;;5.00;2.50;;;16.00;55.20;;;;;;4928853;29;20024;-75
2023/03/16 08:36:14;;;;;;;2.90;2.15;;;16.00;56.50;;;;;;4925481;29;20549;-76
2023/03/16 08:38:40;;;;;;;6.22;1.65;;;16.60;54.70;;;;;;4942402;29;20024;-76
2023/03/16 08:41:07;;;;;;;5.53;1.95;;;16.90;53.60;;;;;;4925411;29;20103;-76
2023/03/16 08:43:33;;;;;;;3.30;1.88;;;17.10;53.50;;;;;;4923608;29;20498;-76
2023/03/16 08:46:00;;;;;;;4.93;1.95;;;17.40;53.30;;;;;;4939140;29;20410;-76
2023/03/16 08:48:27;;;;;;;4.22;2.00;;;17.40;53.30;;;;;;4942217;29;20023;-76
2023/03/16 08:50:54;;;;;;;3.40;1.75;;;17.00;53.00;;;;;;4940935;29;20035;-76
2023/03/16 08:53:20;;;;;;;4.57;2.45;;;16.70;54.80;;;;;;4940253;29;20032;-76
2023/03/16 08:55:46;;;;;;;3.30;1.13;;;16.70;56.00;;;;;;4925148;29;20042;-76
2023/03/16 08:58:14;;;;;;;4.18;1.73;;;16.50;55.50;;;;;;4910192;29;20107;-76
2023/03/16 09:00:40;;;;;;;3.70;1.80;;;16.10;56.10;;;;;;4921641;29;20039;-76
2023/03/16 09:03:06;;;;;;;3.65;1.55;;;15.80;58.20;;;;;;4918435;29;20492;-76
2023/03/16 09:05:31;;;;;;;4.07;1.90;;;15.60;58.90;;;;;;4911089;29;20039;-76
2023/03/16 09:07:58;;;;;;;3.50;1.73;;;15.50;59.70;;;;;;4923072;29;20631;-76
2023/03/16 09:10:26;;;;;;;3.08;1.75;;;15.50;59.20;;;;;;4923041;29;20032;-76
2023/03/16 09:12:52;;;;;;;7.65;2.88;;;15.60;59.30;;;;;;4922616;29;20079;-76
2023/03/16 09:15:19;;;;;;;2.42;1.65;;;15.70;59.50;;;;;;4905848;29;20032;-76
2023/03/16 09:17:46;;;;;;;2.50;1.65;;;15.30;59.90;;;;;;4905891;29;20432;-76
2023/03/16 09:20:14;;;;;;;3.33;1.98;;;15.50;60.00;;;;;;4922564;29;20043;-76
2023/03/16 09:22:40;;;;;;;3.65;1.77;;;15.10;60.10;;;;;;4922660;29;20068;-76
2023/03/16 09:25:09;;;;;;;2.53;1.80;;;15.80;59.60;;;;;;4922499;29;20033;-76
2023/03/16 09:27:35;;;;;;;1.83;1.15;;;16.30;58.00;;;;;;4921231;29;20539;-75
2023/03/16 09:30:06;;;;;;;2.60;1.10;;;16.80;56.60;;;;;;4922650;29;20032;-76
2023/03/16 09:32:32;;;;;;;2.90;1.08;;;16.90;55.60;;;;;;4903339;29;20131;-76
2023/03/16 09:34:58;;;;;;;3.03;1.20;;;17.40;55.40;;;;;;4903626;29;20571;-76
2023/03/16 09:37:25;;;;;;;1.63;0.88;;;17.60;53.40;;;;;;4902917;29;20056;-76
2023/03/16 09:39:51;;;;;;;4.90;1.42;;;17.40;54.10;;;;;;4902219;29;20033;-76
2023/03/16 09:42:26;;;;;;;2.88;0.90;;;16.80;53.90;;;;;;4886475;29;20031;-77
2023/03/16 09:45:08;;;;;;;2.90;1.02;;;16.50;56.10;;;;;;4902327;29;20032;-76
2023/03/16 09:47:35;;;;;;;2.13;1.20;;;16.60;56.70;;;;;;4903136;29;20033;-76
2023/03/16 09:50:08;;;;;;;3.05;1.38;;;16.50;55.60;;;;;;4903053;29;20377;-76
2023/03/16 09:52:47;;;;;;;3.30;1.20;;;16.80;55.70;;;;;;4903421;29;20043;-76
2023/03/16 09:55:28;;;;;;;3.25;1.20;;;17.00;56.00;;;;;;4900597;29;20051;-76
2023/03/16 09:57:54;;;;;;;1.25;0.68;;;17.00;56.30;;;;;;4901698;29;20028;-76
2023/03/16 10:00:26;;;;;;;3.55;1.20;;;17.10;55.80;;;;;;4902892;29;20378;-76
2023/03/16 10:03:07;;;;;;;4.40;1.20;;;16.90;55.70;;;;;;4903088;29;20161;-76
2023/03/16 10:05:34;;;;;;;2.47;1.13;;;16.80;55.40;;;;;;4916530;29;20529;-76
2023/03/16 10:08:20;;;;;;;3.58;1.23;;;16.50;56.30;;;;;;4901509;29;20492;-76
2023/03/16 10:11:13;;;;;;;2.90;1.25;;;16.80;56.30;;;;;;4902664;29;20111;-76
2023/03/16 10:14:12;;;;;;;2.38;1.10;;;16.40;56.90;;;;;;4902196;29;20047;-76
2023/03/16 10:17:03;;;;;;;2.78;1.00;;;16.40;57.00;;;;;;4902546;29;20021;-76
2023/03/16 10:19:44;;;;;;;4.40;1.20;;;16.30;57.40;;;;;;4899071;29;20031;-76
2023/03/16 10:22:33;;;;;;;3.95;1.63;;;16.30;57.90;;;;;;4902976;29;20867;-76
2023/03/16 10:25:18;;;;;;;3.83;1.42;;;15.80;58.40;;;;;;4902779;29;20056;-76
2023/03/16 10:27:44;;;;;;;1.88;1.10;;;15.80;59.50;;;;;;4901164;29;20039;-76
2023/03/16 10:30:21;;;;;;;4.07;1.35;;;15.80;59.20;;;;;;4901328;29;20036;-76
2023/03/16 10:32:47;;;;;;;3.28;1.10;;;15.90;59.20;;;;;;4914263;29;20040;-76
2023/03/16 10:35:27;;;;;;;4.63;1.17;;;16.00;59.00;;;;;;4902022;29;20032;-76
2023/03/16 10:37:53;;;;;;;3.30;1.17;;;15.90;59.30;;;;;;4902662;29;20025;-76
2023/03/16 10:40:19;;;;;;;3.33;1.20;;;15.90;59.40;;;;;;4900852;29;20044;-76
2023/03/16 10:42:46;;;;;;;2.92;1.10;;;15.70;60.30;;;;;;4901634;29;20060;-76
2023/03/16 10:45:25;;;;;;;1.35;1.15;;;15.80;59.40;;;;;;4885506;29;20039;-76
2023/03/16 10:47:51;;;;;;;3.70;1.13;;;15.70;59.60;;;;;;4901161;29;20025;-76
2023/03/16 10:50:24;;;;;;;4.43;1.20;;;15.70;60.20;;;;;;4902148;29;20488;-76
2023/03/16 10:52:52;;;;;;;2.47;1.13;;;15.90;60.10;;;;;;4902140;29;20076;-75
2023/03/16 10:55:29;;;;;;;3.28;1.10;;;15.80;60.60;;;;;;4900432;29;20020;-76
2023/03/16 10:57:55;;;;;;;3.50;1.13;;;15.90;59.90;;;;;;4901402;29;20029;-75
2023/03/16 11:00:25;;;;;;;4.07;1.75;;;15.80;59.70;;;;;;4900583;29;20400;-76
2023/03/16 11:02:54;;;;;;;2.67;1.35;;;15.60;59.80;;;;;;4902048;29;20029;-76
2023/03/16 11:05:30;;;;;;;3.00;1.23;;;15.70;60.30;;;;;;4903171;29;20064;-76
2023/03/16 11:08:08;;;;;;;3.78;1.30;;;15.70;60.50;;;;;;4902018;29;20044;-75
2023/03/16 11:10:36;;;;;;;2.22;1.13;;;15.60;60.30;;;;;;4905040;29;20132;-76
2023/03/16 11:13:16;;;;;;;2.28;1.33;;;15.60;60.90;;;;;;4901417;29;20039;-77
2023/03/16 11:16:26;;;;;;;2.17;1.33;;;15.80;60.60;;;;;;4901502;29;20021;-75
2023/03/16 11:19:24;;;;;;;1.75;1.00;;;16.00;59.70;;;;;;4835362;29;20409;-77
2023/03/16 11:22:12;;;;;;;3.63;1.77;;;16.30;60.10;;;;;;4893696;29;20047;-75
2023/03/16 11:24:59;;;;;;;2.53;1.83;;;16.70;58.90;;;;;;4901468;29;20037;-75
2023/03/16 11:27:34;;;;;;;4.10;1.50;;;16.80;58.40;;;;;;4892803;29;20115;-75
2023/03/16 11:30:05;;;;;;;2.47;1.00;;;16.80;59.00;;;;;;4900782;29;20127;-77
2023/03/16 11:32:39;;;;;;;3.97;1.40;;;16.60;58.70;;;;;;4901145;29;20048;-77
2023/03/16 11:35:15;;;;;;;6.70;1.20;;;16.70;58.80;;;;;;4901433;29;20052;-77
2023/03/16 11:37:59;;;;;;;3.53;1.20;;;16.70;59.10;;;;;;4900743;29;20028;-77
2023/03/16 11:40:46;;;;;;;2.75;1.23;;;17.00;58.30;;;;;;4901330;29;20035;-77
2023/03/16 11:43:30;;;;;;;5.15;1.40;;;17.10;57.60;;;;;;4886030;29;20025;-77
2023/03/16 11:46:15;;;;;;;2.40;0.93;;;16.90;57.10;;;;;;4882227;29;20564;-79
2023/03/16 11:49:05;;;;;;;3.40;1.20;;;17.00;58.30;;;;;;4881331;29;20037;-83
2023/03/16 11:51:41;;;;;;;2.47;0.90;;;17.20;56.50;;;;;;4900879;29;20033;-76
2023/03/16 11:54:36;;;;;;;3.40;1.30;;;17.30;56.00;;;;;;4900082;29;20020;-76
2023/03/16 11:57:36;;;;;;;5.72;1.00;;;17.30;55.50;;;;;;4886602;29;20082;-76
2023/03/16 12:00:10;;;;;;;;;;;17.50;56.20;;;;;;4901278;29;20054;-76
2023/03/16 12:02:35;;;;;;;1.73;0.88;;;17.50;56.20;;;;;;4896151;29;19907;-76
2023/03/16 12:05:32;;;;;;;4.40;1.17;;;17.40;56.40;;;;;;4893847;29;20044;-78
2023/03/16 12:08:04;;;;;;;2.38;1.05;;;17.50;57.20;;;;;;4900671;29;20024;-77
2023/03/16 12:10:40;;;;;;;4.57;0.98;;;17.50;56.00;;;;;;4900614;29;20099;-76
2023/03/16 12:13:29;;;;;;;3.72;1.08;;;17.50;55.20;;;;;;4883731;29;20028;-77
2023/03/16 12:16:04;;;;;;;1.30;0.80;;;17.90;54.50;;;;;;4900167;29;20602;-78
2023/03/16 12:18:54;;;;;;;2.33;0.93;;;18.00;53.70;;;;;;4910536;29;20293;-77
2023/03/16 12:21:30;;;;;;;4.78;1.10;;;17.80;53.50;;;;;;4915269;29;20087;-80
2023/03/16 12:24:08;;;;;;;3.17;1.05;;;17.60;54.80;;;;;;4900653;29;20483;-75
2023/03/16 12:26:38;;;;;;;4.15;1.08;;;17.80;53.90;;;;;;4895797;29;20064;-75
2023/03/16 12:29:34;;;;;;;2.92;1.00;;;17.90;52.80;;;;;;4883961;29;20032;-76
2023/03/16 12:32:25;;;;;;;1.63;0.90;;;18.00;53.00;;;;;;4899806;29;20052;-77
2023/03/16 12:35:18;;;;;;;5.35;1.45;;;18.20;52.70;;;;;;4899241;29;20037;-75
2023/03/16 12:38:07;;;;;;;2.70;1.20;;;18.10;51.80;;;;;;4886826;29;20520;-75
2023/03/16 12:41:09;;;;;;;1.75;0.90;;;18.00;52.60;;;;;;4900485;29;20025;-74
2023/03/16 12:43:39;;;;;;;3.72;0.88;;;18.10;52.00;;;;;;4900347;29;20111;-74
2023/03/16 12:46:12;;;;;;;5.03;1.35;;;18.30;52.50;;;;;;4899291;29;20032;-75
2023/03/16 12:48:48;;;;;;;1.90;1.20;;;18.20;52.50;;;;;;4900254;29;20056;-77
2023/03/16 12:51:14;;;;;;;2.40;1.00;;;18.10;53.40;;;;;;4899131;29;20078;-75
2023/03/16 12:53:54;;;;;;;4.03;1.10;;;18.30;53.70;;;;;;4897574;29;20047;-75
2023/03/16 12:56:42;;;;;;;2.30;0.77;;;18.50;53.30;;;;;;4900604;29;20090;-74
2023/03/16 12:59:17;;;;;;;4.05;1.10;;;18.70;52.60;;;;;;4899680;29;20041;-74
2023/03/16 13:01:44;;;;;;;1.17;0.75;;;18.80;52.50;;;;;;4900107;29;20021;-78
2023/03/16 13:04:15;;;;;;;2.05;0.98;;;18.70;53.50;;;;;;4905162;29;20420;-78
2023/03/16 13:06:48;;;;;;;3.58;1.00;;;18.80;53.00;;;;;;4900263;29;20056;-78
2023/03/16 13:09:24;;;;;;;1.92;0.80;;;18.70;53.50;;;;;;4900348;29;20036;-78
2023/03/16 13:11:50;;;;;;;3.30;1.25;;;18.80;53.90;;;;;;4884986;29;20039;-78
2023/03/16 13:14:53;;;;;;;2.38;0.73;;;18.90;53.00;;;;;;4900298;29;20029;-78
2023/03/16 13:17:19;;;;;;;2.70;1.10;;;19.00;52.90;;;;;;4852263;29;20032;-79
2023/03/16 13:19:59;;;;;;;3.50;0.98;;;18.90;53.20;;;;;;4901670;29;20044;-78
2023/03/16 13:22:28;;;;;;;3.53;1.08;;;19.00;52.90;;;;;;4903731;29;20040;-78
2023/03/16 13:24:58;;;;;;;1.88;0.70;;;19.00;51.90;;;;;;4900760;29;20044;-78
2023/03/16 13:27:35;;;;;;;1.80;0.88;;;19.10;52.40;;;;;;4903843;29;20020;-83
2023/03/16 13:30:19;;;;;;;1.20;0.75;;;19.10;52.70;;;;;;4902652;29;20393;-78
2023/03/16 13:32:46;;;;;;;3.28;1.13;;;19.00;53.50;;;;;;4903199;29;20565;-78
2023/03/16 13:35:17;;;;;;;3.58;1.48;;;19.00;53.40;;;;;;4902391;29;20025;-78
2023/03/16 13:37:44;;;;;;;4.75;1.00;;;18.80;52.20;;;;;;4903600;29;20029;-78
2023/03/16 13:40:23;;;;;;;2.95;1.20;;;18.80;53.90;;;;;;4902373;29;20076;-78
2023/03/16 13:42:51;;;;;;;3.72;1.35;;;18.90;53.80;;;;;;4903540;29;20037;-78
2023/03/16 13:45:30;;;;;;;1.85;0.80;;;18.90;53.10;;;;;;4902356;29;20020;-78
2023/03/16 13:47:58;;;;;;;2.42;1.00;;;19.10;53.30;;;;;;4901977;29;20085;-78
2023/03/16 13:50:25;;;;;;;3.53;0.93;;;19.20;52.80;;;;;;4903247;29;20024;-78
2023/03/16 13:52:59;;;;;;;1.42;0.80;;;19.20;50.40;;;;;;4916819;29;20028;-78
2023/03/16 13:55:36;;;;;;;5.78;1.77;;;19.30;50.90;;;;;;4902704;29;20036;-78
2023/03/16 13:58:03;;;;;;;3.42;1.20;;;19.40;51.60;;;;;;4886376;29;20039;-78
2023/03/16 14:00:33;;;;;;;3.60;1.00;;;19.40;50.80;;;;;;4886126;29;20032;-78
2023/03/16 14:03:05;;;;;;;3.13;0.90;;;19.50;51.00;;;;;;4884225;29;20037;-78
2023/03/16 14:05:35;;;;;;;3.67;1.00;;;19.40;51.20;;;;;;4898727;29;20198;-79
2023/03/16 14:08:01;;;;;;;5.47;1.27;;;19.50;51.50;;;;;;4886457;29;20172;-80
2023/03/16 14:10:32;;;;;;;4.82;1.63;;;19.50;51.30;;;;;;4901810;29;20152;-80
2023/03/16 14:13:07;;;;;;;1.60;0.85;;;19.50;51.60;;;;;;4902760;29;20096;-76
2023/03/16 14:15:34;;;;;;;6.82;1.50;;;19.50;51.70;;;;;;4902809;29;20029;-78
2023/03/16 14:18:20;;;;;;;2.58;1.05;;;19.40;51.40;;;;;;4902707;29;20044;-76
2023/03/16 14:20:55;;;;;;;3.58;1.15;;;19.40;52.40;;;;;;4901158;29;20039;-76
2023/03/16 14:23:29;;;;;;;1.27;0.75;;;19.50;52.20;;;;;;4901605;29;20025;-76
2023/03/16 14:25:56;;;;;;;2.28;1.27;;;19.70;51.80;;;;;;4902046;29;20045;-76
2023/03/16 14:28:29;;;;;;;5.78;1.23;;;19.70;51.50;;;;;;4901546;29;20045;-76
2023/03/16 14:31:08;;;;;;;5.05;1.80;;;19.70;50.80;;;;;;4908516;29;20108;-76
2023/03/16 14:33:36;;;;;;;7.63;1.38;;;19.70;51.90;;;;;;4908172;29;20069;-76
2023/03/16 14:36:17;;;;;;;4.18;1.38;;;19.40;52.00;;;;;;4901692;29;20028;-77
2023/03/16 14:38:47;;;;;;;5.57;2.10;;;19.60;51.90;;;;;;4901039;29;20031;-76
2023/03/16 14:41:26;;;;;;;5.68;2.30;;;19.50;52.20;;;;;;4902580;29;20514;-76
2023/03/16 14:43:59;;;;;;;5.95;1.85;;;19.40;52.60;;;;;;4901290;29;20147;-76
2023/03/16 14:46:39;;;;;;;2.58;1.50;;;19.30;52.00;;;;;;4902183;29;20516;-74
2023/03/16 14:49:26;;;;;;;4.32;1.75;;;19.30;52.70;;;;;;4901029;29;20017;-75
2023/03/16 14:51:57;;;;;;;2.42;1.30;;;19.40;53.40;;;;;;4900816;29;20116;-75
2023/03/16 14:54:23;;;;;;;4.85;1.50;;;19.40;52.70;;;;;;4901061;29;20060;-75
2023/03/16 14:56:54;;;;;;;2.90;1.50;;;19.30;53.40;;;;;;4902141;29;20477;-75
2023/03/16 14:59:20;;;;;;;5.25;1.23;;;19.30;53.50;;;;;;4900925;29;20028;-75
2023/03/16 15:01:48;;;;;;;3.88;1.60;;;19.30;53.70;;;;;;4901807;29;20071;-75
2023/03/16 15:04:18;;;;;;;3.20;1.40;;;19.30;54.20;;;;;;4903069;29;20028;-75
2023/03/16 15:06:44;;;;;;;3.45;1.30;;;19.30;53.30;;;;;;4900901;29;20032;-75
2023/03/16 15:09:39;;;;;;;2.75;1.30;;;19.40;52.70;;;;;;4901691;29;20463;-74
2023/03/16 15:12:16;;;;;;;1.60;0.90;;;19.50;52.70;;;;;;4880325;29;20530;-75
2023/03/16 15:17:27;;;;;;;2.70;0.80;;;19.60;51.90;;;;;;4901576;29;20068;-75
2023/03/16 15:19:53;;;;;;;3.17;1.20;;;19.70;51.90;;;;;;4900528;29;20025;-75
2023/03/16 15:22:26;;;;;;;6.55;1.20;;;19.60;51.50;;;;;;4901624;29;20037;-76
2023/03/16 15:24:52;;;;;;;4.18;1.15;;;19.70;51.50;;;;;;4901644;29;20052;-76
2023/03/16 15:27:30;;;;;;;4.25;0.85;;;19.60;51.40;;;;;;4899497;29;20096;-75
2023/03/16 15:29:56;;;;;;;5.32;1.35;;;19.60;50.90;;;;;;4901340;29;20037;-75
2023/03/16 15:32:22;;;;;;;2.30;0.90;;;19.60;51.30;;;;;;4932085;29;20048;-76
2023/03/16 15:34:48;;;;;;;1.95;0.90;;;19.70;50.90;;;;;;4920449;29;20026;-76
2023/03/16 15:37:18;;;;;;;2.97;0.90;;;19.70;51.60;;;;;;4920404;29;20028;-76
2023/03/16 15:39:45;;;;;;;4.07;1.20;;;19.70;51.00;;;;;;4919993;29;20083;-76
2023/03/16 15:42:17;;;;;;;3.38;1.30;;;19.60;51.40;;;;;;4923648;29;20039;-76
2023/03/16 15:44:44;;;;;;;3.50;0.90;;;19.60;51.50;;;;;;4939017;29;20035;-76
2023/03/16 15:47:10;;;;;;;1.95;0.93;;;19.60;51.50;;;;;;4921874;29;20035;-76
2023/03/16 15:49:36;;;;;;;2.40;1.00;;;19.60;52.00;;;;;;4938886;29;20118;-76
2023/03/16 15:52:09;;;;;;;1.90;0.80;;;19.70;52.40;;;;;;4906899;29;20043;-76
2023/03/16 15:54:35;;;;;;;2.17;1.25;;;19.70;51.50;;;;;;4920001;29;20032;-76
2023/03/16 15:57:01;;;;;;;1.98;0.88;;;19.70;51.60;;;;;;4919959;29;20084;-76
2023/03/16 15:59:33;;;;;;;2.92;0.95;;;19.60;51.80;;;;;;4919870;29;20871;-76
2023/03/16 16:01:59;;;;;;;2.45;0.90;;;19.60;51.90;;;;;;4919227;29;20052;-75
2023/03/16 16:04:25;;;;;;;1.75;0.82;;;19.50;51.80;;;;;;4914871;29;20035;-76
2023/03/16 16:06:55;;;;;;;1.52;0.77;;;19.50;52.40;;;;;;4935814;29;20035;-76
2023/03/16 16:09:21;;;;;;;2.42;0.88;;;19.50;52.40;;;;;;4919368;29;20119;-76
2023/03/16 16:11:49;;;;;;;3.10;1.13;;;19.50;52.50;;;;;;4919875;29;20115;-76
2023/03/16 16:14:16;;;;;;;3.45;1.10;;;19.50;52.30;;;;;;4919561;29;20080;-76
2023/03/16 16:16:45;;;;;;;3.90;1.02;;;19.40;52.40;;;;;;4918584;29;20028;-76
2023/03/16 16:19:14;;;;;;;5.53;0.82;;;19.40;52.10;;;;;;4932658;29;20031;-76
2023/03/16 16:21:41;;;;;;;3.40;1.27;;;19.30;52.50;;;;;;4938616;29;20067;-77
2023/03/16 16:24:08;;;;;;;2.45;1.23;;;19.20;52.40;;;;;;4937371;29;20040;-75
2023/03/16 16:26:36;;;;;;;4.85;0.93;;;19.20;52.20;;;;;;4919223;29;20115;-76
2023/03/16 16:29:14;;;;;;;4.93;1.50;;;19.10;52.80;;;;;;4904235;29;20431;-76
2023/03/16 16:31:40;;;;;;;4.78;2.10;;;19.10;53.40;;;;;;4905459;29;20052;-77
2023/03/16 16:34:14;;;;;;;4.05;1.65;;;19.00;53.30;;;;;;4899285;29;20164;-74
2023/03/16 16:36:40;;;;;;;6.15;2.08;;;19.00;53.60;;;;;;4898349;29;20029;-75
2023/03/16 16:39:06;;;;;;;4.45;1.90;;;19.00;54.00;;;;;;4899269;29;20035;-74
2023/03/16 16:41:34;;;;;;;4.43;1.50;;;19.00;54.40;;;;;;4898408;29;20048;-73
2023/03/16 16:44:07;;;;;;;3.55;1.23;;;19.00;54.80;;;;;;4882733;29;20116;-74
2023/03/16 16:46:38;;;;;;;6.35;1.75;;;19.00;54.90;;;;;;4898013;29;20032;-74
2023/03/16 16:49:15;;;;;;;3.38;1.60;;;18.90;55.40;;;;;;4898564;29;20535;-74
2023/03/16 16:51:41;;;;;;;4.18;2.20;;;18.90;55.60;;;;;;4899891;29;20107;-75
2023/03/16 16:54:22;;;;;;;3.13;1.35;;;18.90;55.40;;;;;;4902807;29;20020;-73
2023/03/16 16:56:53;;;;;;;5.70;1.63;;;18.80;55.50;;;;;;4901255;29;20108;-74
2023/03/16 16:59:21;;;;;;;4.90;1.85;;;18.80;55.80;;;;;;4901788;29;20384;-74
2023/03/16 17:01:49;;;;;;;4.50;2.08;;;18.80;56.20;;;;;;4901029;29;20028;-74
2023/03/16 17:04:22;;;;;;;2.95;1.70;;;18.70;55.70;;;;;;4902688;29;20033;-77
2023/03/16 17:06:51;;;;;;;6.60;2.80;;;18.70;55.80;;;;;;4899495;29;20119;-75
2023/03/16 17:09:16;;;;;;;8.13;2.75;;;18.70;55.70;;;;;;4901787;29;20547;-74
2023/03/16 17:11:44;;;;;;;7.65;2.55;;;18.60;55.80;;;;;;4880480;29;20032;-74
2023/03/16 17:14:15;;;;;;;6.13;2.63;;;18.60;56.10;;;;;;4901441;29;20559;-74
2023/03/16 17:16:42;;;;;;;7.38;3.33;;;18.50;56.10;;;;;;4900610;29;20032;-74
2023/03/16 17:19:20;;;;;;;7.22;2.60;;;18.50;55.60;;;;;;4900253;29;20028;-74
2023/03/16 17:21:45;;;;;;;5.93;2.47;;;18.40;55.80;;;;;;4901164;29;20039;-75
2023/03/16 17:24:11;;;;;;;5.15;1.70;;;18.30;55.70;;;;;;4902960;29;20029;-75
2023/03/16 17:26:42;;;;;;;3.95;1.65;;;18.30;56.00;;;;;;4900979;29;20032;-75
2023/03/16 17:29:32;;;;;;;5.85;2.20;;;18.20;56.20;;;;;;4903693;29;20039;-75
2023/03/16 17:32:06;;;;;;;3.80;1.60;;;18.10;56.10;;;;;;4900539;29;20057;-74
2023/03/16 17:34:33;;;;;;;4.20;1.35;;;18.00;56.20;;;;;;4897730;29;20060;-76
2023/03/16 17:37:00;;;;;;;3.40;1.30;;;18.00;56.40;;;;;;4900349;29;20035;-75
2023/03/16 17:39:31;;;;;;;5.70;1.75;;;17.80;56.60;;;;;;4901397;29;20116;-75
2023/03/16 17:42:01;;;;;;;6.60;1.95;;;17.80;56.70;;;;;;4901720;29;20061;-75
2023/03/16 17:44:36;;;;;;;2.22;1.35;;;17.80;56.80;;;;;;4902240;29;20511;-75
2023/03/16 17:47:03;;;;;;;4.25;1.70;;;17.60;57.10;;;;;;4901677;29;20404;-75
2023/03/16 17:49:30;;;;;;;7.18;1.50;;;17.60;57.50;;;;;;4899748;29;20043;-75
2023/03/16 17:51:56;;;;;;;10.98;2.00;;;17.60;57.70;;;;;;4901159;29;20519;-75
2023/03/16 17:54:21;;;;;;;4.03;1.35;;;17.50;57.70;;;;;;4899836;29;20143;-74
2023/03/16 17:56:50;;;;;;;3.33;1.50;;;17.50;58.10;;;;;;4900354;29;20033;-75
2023/03/16 17:59:20;;;;;;;2.88;1.65;;;17.40;58.20;;;;;;4899866;29;20035;-75
2023/03/16 18:01:47;;;;;;;5.82;1.65;;;17.30;58.30;;;;;;4900170;29;20036;-74
2023/03/16 18:04:22;;;;;;;7.28;1.58;;;17.20;58.70;;;;;;4898489;29;20080;-75
2023/03/16 18:06:49;;;;;;;5.85;2.10;;;17.20;58.80;;;;;;4901721;29;20029;-75
2023/03/16 18:09:17;;;;;;;7.47;2.17;;;17.10;59.10;;;;;;4901228;29;20053;-74
2023/03/16 18:11:46;;;;;;;8.15;1.85;;;17.00;59.40;;;;;;4880823;29;20036;-75
2023/03/16 18:14:34;;;;;;;4.97;2.28;;;17.00;59.60;;;;;;4900631;29;20088;-74
2023/03/16 18:17:16;;;;;;;4.63;1.70;;;16.90;59.70;;;;;;4899456;29;20035;-75
2023/03/16 18:19:42;;;;;;;6.97;2.33;;;16.80;60.10;;;;;;4900103;29;20055;-75
2023/03/16 18:22:18;;;;;;;4.70;2.10;;;16.80;60.20;;;;;;4900321;29;20033;-75
2023/03/16 18:24:45;;;;;;;7.63;3.88;;;16.70;60.50;;;;;;4884640;29;20123;-74
2023/03/16 18:27:11;;;;;;;7.95;3.10;;;16.70;60.80;;;;;;4900469;29;20035;-74
2023/03/16 18:29:36;;;;;;;4.43;2.47;;;16.60;61.20;;;;;;4901609;29;20530;-75
2023/03/16 18:32:03;;;;;;;9.30;3.35;;;16.50;61.40;;;;;;4899501;29;20068;-75
2023/03/16 18:34:33;;;;;;;4.55;2.45;;;16.50;61.60;;;;;;4899661;29;20044;-76
2023/03/16 18:37:04;;;;;;;8.43;2.50;;;16.50;61.60;;;;;;4900150;29;20067;-76
2023/03/16 18:39:31;;;;;;;6.85;2.25;;;16.50;61.60;;;;;;4899083;29;20047;-76
2023/03/16 18:41:57;;;;;;;4.82;2.20;;;16.60;61.60;;;;;;4901023;29;20039;-76